createdAt,value
2023-02-19T00:01:09.962Z,100.00
2023-02-19T00:03:38.057Z,100.00
2023-02-19T00:06:07.099Z,100.00
2023-02-19T00:08:35.875Z,100.00
2023-02-19T00:11:04.172Z,100.00
2023-02-19T00:13:32.178Z,100.00
2023-02-19T00:16:00.524Z,100.00
2023-02-19T00:18:29.594Z,100.00
2023-02-19T00:20:57.528Z,100.00
2023-02-19T00:23:25.261Z,100.00
2023-02-19T00:25:52.882Z,100.00
2023-02-19T00:28:20.641Z,100.00
2023-02-19T00:30:48.677Z,100.00
2023-02-19T00:33:17.248Z,100.00
2023-02-19T00:35:46.337Z,100.00
2023-02-19T00:38:13.990Z,100.00
2023-02-19T00:40:41.692Z,100.00
2023-02-19T00:43:09.388Z,100.00
2023-02-19T00:45:37.048Z,100.00
2023-02-19T00:48:04.951Z,100.00
2023-02-19T00:50:32.986Z,100.00
2023-02-19T00:53:02.010Z,100.00
2023-02-19T00:55:29.703Z,100.00
2023-02-19T00:57:57.413Z,100.00
2023-02-19T01:00:25.070Z,100.00
2023-02-19T01:02:53.499Z,100.00
2023-02-19T01:05:21.184Z,100.00
2023-02-19T01:07:48.899Z,100.00
2023-02-19T01:10:18.175Z,100.00
2023-02-19T01:12:45.793Z,100.00
2023-02-19T01:15:13.505Z,100.00
2023-02-19T01:17:41.219Z,100.00
2023-02-19T01:20:09.807Z,100.00
2023-02-19T01:22:37.443Z,100.00
2023-02-19T01:25:05.366Z,100.00
2023-02-19T01:27:34.455Z,100.00
2023-02-19T01:30:02.293Z,100.00
2023-02-19T01:32:30.109Z,100.00
2023-02-19T01:34:57.819Z,100.00
2023-02-19T01:37:25.592Z,100.00
2023-02-19T01:39:53.267Z,100.00
2023-02-19T01:42:20.925Z,100.00
2023-02-19T01:45:24.841Z,100.00
2023-02-19T01:47:57.752Z,100.00
2023-02-19T01:50:26.180Z,100.00
2023-02-19T01:52:53.832Z,100.00
2023-02-19T01:55:21.938Z,100.00
2023-02-19T01:57:53.659Z,100.00
2023-02-19T02:00:21.434Z,100.00
2023-02-19T02:02:50.642Z,100.00
2023-02-19T02:05:26.424Z,100.00
2023-02-19T02:08:11.596Z,100.00
2023-02-19T02:10:39.342Z,100.00
2023-02-19T02:13:07.003Z,100.00
2023-02-19T02:15:40.356Z,100.00
2023-02-19T02:18:15.131Z,100.00
2023-02-19T02:20:59.212Z,100.00
2023-02-19T02:23:40.331Z,100.00
2023-02-19T02:26:14.997Z,100.00
2023-02-19T02:29:02.580Z,100.00
2023-02-19T02:31:35.406Z,100.00
2023-02-19T02:34:07.415Z,100.00
2023-02-19T02:36:37.448Z,100.00
2023-02-19T02:39:07.279Z,100.00
2023-02-19T02:41:35.410Z,100.00
2023-02-19T02:44:03.055Z,100.00
2023-02-19T02:46:36.635Z,100.00
2023-02-19T02:49:07.072Z,100.00
2023-02-19T02:51:37.608Z,100.00
2023-02-19T02:54:37.320Z,100.00
2023-02-19T02:57:05.316Z,100.00
2023-02-19T02:59:35.625Z,100.00
2023-02-19T03:02:11.677Z,100.00
2023-02-19T03:05:01.531Z,100.00
2023-02-19T03:07:32.794Z,100.00
2023-02-19T03:10:01.349Z,100.00
2023-02-19T03:12:48.509Z,100.00
2023-02-19T03:15:35.482Z,100.00
2023-02-19T03:18:25.548Z,100.00
2023-02-19T03:20:56.459Z,100.00
2023-02-19T03:23:46.343Z,100.00
2023-02-19T03:26:13.700Z,100.00
2023-02-19T03:29:00.255Z,100.00
2023-02-19T03:31:30.140Z,100.00
2023-02-19T03:34:01.026Z,100.00
2023-02-19T03:36:33.743Z,100.00
2023-02-19T03:39:05.118Z,100.00
2023-02-19T03:41:36.997Z,100.00
2023-02-19T03:44:11.145Z,100.00
2023-02-19T03:46:46.294Z,100.00
2023-02-19T03:49:18.948Z,100.00
2023-02-19T03:51:52.067Z,100.00
2023-02-19T03:54:22.897Z,100.00
2023-02-19T03:56:53.653Z,100.00
2023-02-19T03:59:25.682Z,100.00
2023-02-19T04:01:56.295Z,100.00
2023-02-19T04:04:28.753Z,100.00
2023-02-19T04:06:58.363Z,100.00
2023-02-19T04:09:29.105Z,100.00
2023-02-19T04:11:57.063Z,100.00
2023-02-19T04:14:27.192Z,100.00
2023-02-19T04:17:00.120Z,100.00
2023-02-19T04:19:30.262Z,100.00
2023-02-19T04:21:58.331Z,100.00
2023-02-19T04:24:29.438Z,100.00
2023-02-19T04:26:57.248Z,100.00
2023-02-19T04:29:24.895Z,100.00
2023-02-19T04:31:52.603Z,100.00
2023-02-19T04:34:20.348Z,100.00
2023-02-19T04:36:49.383Z,100.00
2023-02-19T04:39:17.083Z,100.00
2023-02-19T04:41:44.817Z,100.00
2023-02-19T04:44:12.498Z,100.00
2023-02-19T04:46:43.022Z,100.00
2023-02-19T04:49:10.876Z,100.00
2023-02-19T04:51:39.377Z,100.00
2023-02-19T04:54:08.928Z,100.00
2023-02-19T04:56:36.656Z,100.00
2023-02-19T04:59:05.015Z,100.00
2023-02-19T05:01:32.754Z,100.00
2023-02-19T05:04:00.418Z,100.00
2023-02-19T05:06:28.494Z,100.00
2023-02-19T05:08:56.242Z,100.00
2023-02-19T05:11:25.281Z,100.00
2023-02-19T05:13:52.931Z,100.00
2023-02-19T05:16:20.599Z,100.00
2023-02-19T05:18:48.269Z,100.00
2023-02-19T05:21:16.384Z,100.00
2023-02-19T05:23:44.082Z,100.00
2023-02-19T05:26:15.344Z,100.00
2023-02-19T05:28:44.491Z,100.00
2023-02-19T05:31:13.410Z,100.00
2023-02-19T05:33:43.000Z,100.00
2023-02-19T05:36:12.741Z,100.00
2023-02-19T05:38:41.103Z,100.00
2023-02-19T05:41:11.520Z,100.00
2023-02-19T05:43:39.655Z,100.00
2023-02-19T05:46:09.509Z,100.00
2023-02-19T05:48:37.284Z,100.00
2023-02-19T05:51:06.003Z,100.00
2023-02-19T05:53:34.009Z,100.00
2023-02-19T05:56:01.843Z,100.00
2023-02-19T05:58:29.842Z,100.00
2023-02-19T06:00:57.734Z,100.00
2023-02-19T06:03:26.851Z,100.00
2023-02-19T06:05:54.508Z,100.00
2023-02-19T06:08:22.203Z,100.00
2023-02-19T06:10:49.880Z,100.00
2023-02-19T06:13:17.890Z,100.00
2023-02-19T06:15:45.654Z,100.00
2023-02-19T06:18:13.384Z,100.00
2023-02-19T06:20:42.370Z,100.00
2023-02-19T06:23:10.035Z,100.00
2023-02-19T06:25:37.788Z,100.00
2023-02-19T06:28:05.739Z,100.00
2023-02-19T06:30:33.437Z,100.00
2023-02-19T06:33:01.153Z,100.00
2023-02-19T06:35:28.941Z,100.00
2023-02-19T06:37:57.948Z,100.00
2023-02-19T06:40:25.600Z,100.00
2023-02-19T06:42:53.250Z,100.00
2023-02-19T06:45:20.958Z,100.00
2023-02-19T06:47:48.603Z,100.00
2023-02-19T06:50:16.409Z,100.00
2023-02-19T06:52:44.121Z,100.00
2023-02-19T06:55:13.125Z,100.00
2023-02-19T06:57:40.863Z,100.00
2023-02-19T07:00:10.151Z,100.00
2023-02-19T07:02:37.783Z,100.00
2023-02-19T07:05:06.072Z,100.00
2023-02-19T07:07:33.911Z,100.00
2023-02-19T07:10:01.570Z,100.00
2023-02-19T07:12:30.614Z,100.00
2023-02-19T07:14:58.328Z,100.00
2023-02-19T07:17:26.131Z,100.00
2023-02-19T07:19:53.840Z,100.00
2023-02-19T07:22:21.597Z,100.00
2023-02-19T07:24:49.316Z,100.00
2023-02-19T07:27:17.012Z,100.00
2023-02-19T07:29:46.101Z,100.00
2023-02-19T07:32:13.773Z,100.00
2023-02-19T07:34:41.445Z,100.00
2023-02-19T07:37:09.152Z,100.00
2023-02-19T07:39:36.844Z,100.00
2023-02-19T07:42:04.618Z,100.00
2023-02-19T07:44:32.268Z,100.00
2023-02-19T07:47:01.258Z,100.00
2023-02-19T07:49:28.912Z,100.00
2023-02-19T07:51:56.600Z,100.00
2023-02-19T07:54:24.259Z,100.00
2023-02-19T07:56:51.950Z,100.00
2023-02-19T07:59:21.565Z,100.00
2023-02-19T08:02:06.863Z,100.00
2023-02-19T08:04:35.948Z,100.00
2023-02-19T08:07:05.381Z,100.00
2023-02-19T08:09:33.391Z,100.00
2023-02-19T08:12:18.771Z,100.00
2023-02-19T08:14:46.488Z,100.00
2023-02-19T08:17:14.253Z,100.00
2023-02-19T08:19:43.706Z,100.00
2023-02-19T08:22:11.321Z,100.00
2023-02-19T08:24:42.878Z,100.00
2023-02-19T08:27:10.564Z,100.00
2023-02-19T08:29:38.263Z,100.00
2023-02-19T08:32:06.345Z,100.00
2023-02-19T08:34:34.105Z,100.00
2023-02-19T08:37:03.159Z,100.00
2023-02-19T08:39:30.799Z,100.00
2023-02-19T08:41:58.490Z,100.00
2023-02-19T08:44:26.189Z,100.00
2023-02-19T08:46:53.838Z,100.00
2023-02-19T08:49:21.572Z,100.00
2023-02-19T08:51:49.212Z,100.00
2023-02-19T08:54:18.490Z,100.00
2023-02-19T08:56:46.098Z,100.00
2023-02-19T08:59:14.117Z,100.00
2023-02-19T09:01:41.904Z,100.00
2023-02-19T09:04:11.082Z,100.00
2023-02-19T09:06:40.096Z,100.00
2023-02-19T09:09:07.880Z,100.00
2023-02-19T09:11:39.797Z,100.00
2023-02-19T09:14:07.668Z,100.00
2023-02-19T09:16:35.585Z,100.00
2023-02-19T09:19:03.412Z,100.00
2023-02-19T09:21:31.074Z,100.00
2023-02-19T09:23:58.759Z,100.00
2023-02-19T09:26:26.429Z,100.00
2023-02-19T09:28:55.842Z,100.00
2023-02-19T09:31:23.666Z,100.00
2023-02-19T09:33:51.376Z,100.00
2023-02-19T09:36:19.733Z,100.00
2023-02-19T09:38:47.501Z,100.00
2023-02-19T09:41:19.855Z,100.00
2023-02-19T09:43:47.568Z,100.00
2023-02-19T09:46:24.983Z,100.00
2023-02-19T09:48:53.667Z,100.00
2023-02-19T09:51:21.668Z,100.00
2023-02-19T09:53:50.755Z,100.00
2023-02-19T09:56:18.859Z,100.00
2023-02-19T09:58:49.069Z,100.00
2023-02-19T10:01:16.923Z,100.00
2023-02-19T10:03:47.601Z,100.00
2023-02-19T10:06:20.475Z,100.00
2023-02-19T10:08:50.734Z,100.00
2023-02-19T10:11:18.586Z,100.00
2023-02-19T10:13:50.011Z,100.00
2023-02-19T10:16:21.532Z,100.00
2023-02-19T10:18:50.587Z,100.00
2023-02-19T10:21:20.715Z,100.00
2023-02-19T10:23:51.073Z,100.00
2023-02-19T10:26:18.983Z,100.00
2023-02-19T10:28:46.652Z,100.00
2023-02-19T10:31:20.527Z,100.00
2023-02-19T10:33:54.845Z,100.00
2023-02-19T10:36:26.925Z,100.00
2023-02-19T10:38:55.189Z,100.00
2023-02-19T10:41:24.182Z,100.00
2023-02-19T10:43:55.545Z,100.00
2023-02-19T10:46:25.082Z,100.00
2023-02-19T10:48:55.712Z,100.00
2023-02-19T10:51:31.942Z,100.00
2023-02-19T10:54:06.256Z,100.00
2023-02-19T10:56:34.447Z,100.00
2023-02-19T10:59:22.881Z,100.00
2023-02-19T11:01:58.404Z,100.00
2023-02-19T11:04:29.141Z,100.00
2023-02-19T11:06:57.431Z,100.00
2023-02-19T11:09:28.251Z,100.00
2023-02-19T11:11:57.528Z,100.00
2023-02-19T11:14:26.198Z,100.00
2023-02-19T11:16:56.025Z,100.00
2023-02-19T11:19:30.937Z,100.00
2023-02-19T11:21:59.460Z,100.00
2023-02-19T11:24:33.766Z,100.00
2023-02-19T11:27:04.313Z,100.00
2023-02-19T11:29:34.887Z,100.00
2023-02-19T11:32:27.701Z,100.00
2023-02-19T11:35:17.629Z,100.00
2023-02-19T11:37:55.761Z,100.00
2023-02-19T11:40:28.931Z,100.00
2023-02-19T11:43:00.712Z,93.04
2023-02-19T11:45:36.201Z,96.33
2023-02-19T11:48:15.426Z,97.38
2023-02-19T11:50:54.021Z,91.79
2023-02-19T11:53:26.986Z,91.31
2023-02-19T11:56:12.318Z,91.37
2023-02-19T11:59:04.915Z,100.00
2023-02-19T12:01:56.169Z,100.00
2023-02-19T12:05:03.257Z,100.00
2023-02-19T12:07:56.665Z,100.00
2023-02-19T12:10:27.172Z,100.00
2023-02-19T12:13:03.809Z,100.00
2023-02-19T12:15:39.745Z,97.05
2023-02-19T12:18:20.893Z,92.75
2023-02-19T12:20:58.222Z,89.09
2023-02-19T12:23:43.810Z,79.75
2023-02-19T12:26:20.751Z,76.22
2023-02-19T12:29:13.813Z,74.13
2023-02-19T12:32:18.989Z,72.58
2023-02-19T12:35:25.303Z,74.57
2023-02-19T12:38:01.802Z,79.34
2023-02-19T12:40:40.252Z,80.80
2023-02-19T12:43:14.542Z,84.14
2023-02-19T12:45:45.080Z,81.69
2023-02-19T12:48:18.013Z,77.91
2023-02-19T12:50:46.628Z,78.32
2023-02-19T12:53:23.901Z,76.88
2023-02-19T12:55:53.932Z,74.30
2023-02-19T12:58:29.869Z,80.58
2023-02-19T13:00:59.694Z,83.64
2023-02-19T13:03:31.862Z,87.72
2023-02-19T13:06:04.492Z,89.02
2023-02-19T13:08:34.268Z,92.92
2023-02-19T13:11:06.707Z,90.00
2023-02-19T13:13:38.630Z,92.53
2023-02-19T13:16:10.761Z,93.99
2023-02-19T13:18:42.232Z,94.69
2023-02-19T13:21:10.414Z,93.70
2023-02-19T13:23:58.350Z,92.05
2023-02-19T13:26:49.144Z,95.25
2023-02-19T13:29:26.593Z,91.86
2023-02-19T13:32:19.122Z,90.54
2023-02-19T13:34:55.768Z,85.68
2023-02-19T13:37:23.839Z,85.79
2023-02-19T13:39:52.837Z,79.97
2023-02-19T13:42:27.540Z,78.45
2023-02-19T13:44:58.015Z,80.62
2023-02-19T13:47:49.120Z,79.51
2023-02-19T13:50:22.639Z,82.12
2023-02-19T13:52:50.526Z,83.78
2023-02-19T13:55:49.703Z,82.00
2023-02-19T13:58:39.635Z,86.48
2023-02-19T14:01:08.516Z,82.75
2023-02-19T14:03:50.792Z,82.20
2023-02-19T14:06:18.644Z,81.17
2023-02-19T14:08:56.082Z,80.84
2023-02-19T14:12:01.326Z,79.25
2023-02-19T14:14:36.327Z,80.26
2023-02-19T14:17:07.556Z,80.80
2023-02-19T14:19:46.984Z,81.51
2023-02-19T14:23:06.495Z,80.11
2023-02-19T14:25:39.297Z,84.73
2023-02-19T14:28:15.783Z,81.28
2023-02-19T14:30:50.116Z,82.90
2023-02-19T14:33:19.557Z,81.93
2023-02-19T14:35:48.856Z,83.18
2023-02-19T14:38:19.507Z,79.06
2023-02-19T14:40:48.024Z,77.45
2023-02-19T14:43:17.641Z,72.69
2023-02-19T14:45:49.230Z,73.60
2023-02-19T14:48:23.573Z,74.29
2023-02-19T14:50:53.384Z,78.32
2023-02-19T14:53:22.813Z,80.13
2023-02-19T14:55:51.915Z,76.22
2023-02-19T14:58:23.559Z,77.70
2023-02-19T15:00:52.619Z,76.40
2023-02-19T15:03:29.204Z,75.40
2023-02-19T15:05:58.803Z,74.17
2023-02-19T15:08:32.705Z,73.77
2023-02-19T15:11:00.657Z,72.38
2023-02-19T15:13:29.643Z,75.86
2023-02-19T15:15:59.132Z,74.21
2023-02-19T15:18:28.076Z,76.56
2023-02-19T15:21:01.199Z,77.61
2023-02-19T15:23:31.552Z,77.66
2023-02-19T15:26:00.392Z,76.37
2023-02-19T15:28:32.930Z,79.36
2023-02-19T15:31:15.386Z,81.44
2023-02-19T15:33:53.336Z,83.68
2023-02-19T15:36:31.819Z,87.46
2023-02-19T15:39:01.375Z,90.61
2023-02-19T15:41:32.806Z,91.10
2023-02-19T15:44:08.854Z,94.85
2023-02-19T15:46:38.508Z,93.79
2023-02-19T15:49:08.919Z,92.57
2023-02-19T15:51:41.697Z,90.17
2023-02-19T15:54:15.740Z,90.62
2023-02-19T15:56:45.860Z,93.00
2023-02-19T15:59:19.926Z,92.90
2023-02-19T16:01:49.073Z,94.46
2023-02-19T16:04:18.257Z,93.06
2023-02-19T16:06:54.660Z,92.72
2023-02-19T16:09:23.715Z,91.11
2023-02-19T16:11:52.844Z,94.03
2023-02-19T16:14:25.345Z,95.59
2023-02-19T16:16:56.004Z,95.66
2023-02-19T16:19:27.038Z,97.87
2023-02-19T16:21:56.277Z,99.70
2023-02-19T16:24:28.746Z,100.00
2023-02-19T16:26:56.972Z,100.00
2023-02-19T16:29:26.963Z,100.00
2023-02-19T16:31:58.329Z,100.00
2023-02-19T16:34:34.269Z,100.00
2023-02-19T16:37:03.626Z,99.92
2023-02-19T16:39:32.665Z,98.86
2023-02-19T16:42:13.419Z,100.00
2023-02-19T16:44:41.635Z,100.00
2023-02-19T16:47:16.828Z,100.00
2023-02-19T16:49:44.895Z,100.00
2023-02-19T16:52:15.545Z,100.00
2023-02-19T16:54:43.294Z,100.00
2023-02-19T16:57:11.030Z,100.00
2023-02-19T16:59:39.021Z,100.00
2023-02-19T17:02:07.736Z,100.00
2023-02-19T17:04:36.864Z,100.00
2023-02-19T17:07:04.708Z,100.00
2023-02-19T17:09:32.391Z,100.00
2023-02-19T17:12:00.016Z,100.00
2023-02-19T17:14:27.758Z,100.00
2023-02-19T17:16:55.457Z,100.00
2023-02-19T17:19:23.294Z,100.00
2023-02-19T17:21:52.459Z,100.00
2023-02-19T17:24:20.180Z,100.00
2023-02-19T17:26:47.881Z,100.00
2023-02-19T17:29:18.254Z,100.00
2023-02-19T17:31:46.242Z,100.00
2023-02-19T17:34:13.994Z,100.00
2023-02-19T17:36:43.205Z,100.00
2023-02-19T17:39:16.092Z,100.00
2023-02-19T17:41:44.181Z,100.00
2023-02-19T17:44:12.112Z,100.00
2023-02-19T17:46:40.174Z,100.00
2023-02-19T17:49:08.672Z,100.00
2023-02-19T17:51:36.516Z,100.00
2023-02-19T17:54:04.188Z,100.00
2023-02-19T17:56:33.210Z,100.00
2023-02-19T17:59:00.972Z,100.00
2023-02-19T18:01:28.816Z,100.00
2023-02-19T18:03:56.518Z,100.00
2023-02-19T18:06:24.236Z,100.00
2023-02-19T18:08:53.418Z,100.00
2023-02-19T18:11:22.476Z,100.00
2023-02-19T18:13:52.114Z,100.00
2023-02-19T18:16:19.930Z,100.00
2023-02-19T18:18:47.744Z,100.00
2023-02-19T18:21:16.180Z,100.00
2023-02-19T18:23:44.060Z,100.00
2023-02-19T18:26:13.713Z,100.00
2023-02-19T18:28:41.441Z,100.00
2023-02-19T18:31:11.050Z,100.00
2023-02-19T18:33:38.996Z,100.00
2023-02-19T18:36:11.258Z,100.00
2023-02-19T18:38:39.319Z,100.00
2023-02-19T18:41:07.291Z,100.00
2023-02-19T18:43:34.969Z,100.00
2023-02-19T18:46:03.285Z,100.00
2023-02-19T18:48:32.394Z,100.00
2023-02-19T18:51:00.093Z,100.00
2023-02-19T18:53:28.349Z,100.00
2023-02-19T18:55:57.426Z,100.00
2023-02-19T18:58:25.510Z,99.28
2023-02-19T19:00:53.199Z,95.86
2023-02-19T19:03:21.035Z,90.89
2023-02-19T19:05:50.198Z,90.32
2023-02-19T19:08:18.056Z,89.45
2023-02-19T19:10:45.777Z,88.71
2023-02-19T19:13:13.524Z,89.26
2023-02-19T19:15:41.516Z,88.58
2023-02-19T19:18:09.378Z,89.44
2023-02-19T19:20:37.039Z,89.07
2023-02-19T19:23:06.383Z,91.06
2023-02-19T19:25:34.120Z,94.39
2023-02-19T19:28:01.856Z,94.96
2023-02-19T19:30:30.592Z,95.54
2023-02-19T19:32:58.315Z,94.77
2023-02-19T19:35:28.574Z,94.60
2023-02-19T19:37:56.259Z,95.89
2023-02-19T19:40:25.341Z,95.66
2023-02-19T19:42:53.745Z,96.36
2023-02-19T19:45:21.710Z,95.45
2023-02-19T19:47:49.848Z,97.52
2023-02-19T19:50:18.261Z,95.00
2023-02-19T19:52:45.976Z,95.23
2023-02-19T19:55:13.688Z,97.80
2023-02-19T19:57:42.816Z,98.73
2023-02-19T20:00:16.136Z,98.62
2023-02-19T20:02:43.838Z,97.22
2023-02-19T20:05:11.855Z,98.89
2023-02-19T20:07:39.777Z,100.00
2023-02-19T20:10:08.588Z,98.31
2023-02-19T20:12:36.308Z,99.17
2023-02-19T20:15:05.977Z,100.00
2023-02-19T20:17:33.792Z,97.22
2023-02-19T20:20:01.682Z,98.67
2023-02-19T20:22:29.386Z,99.78
2023-02-19T20:24:57.104Z,99.79
2023-02-19T20:27:25.115Z,100.00
2023-02-19T20:29:52.840Z,100.00
2023-02-19T20:32:22.018Z,100.00
2023-02-19T20:34:50.183Z,100.00
2023-02-19T20:37:18.023Z,100.00
2023-02-19T20:39:45.774Z,100.00
2023-02-19T20:42:16.599Z,100.00
2023-02-19T20:44:44.581Z,100.00
2023-02-19T20:47:12.377Z,100.00
2023-02-19T20:49:45.345Z,100.00
2023-02-19T20:52:19.077Z,100.00
2023-02-19T20:54:46.750Z,100.00
2023-02-19T20:57:15.137Z,100.00
2023-02-19T20:59:44.232Z,100.00
2023-02-19T21:02:17.824Z,100.00
2023-02-19T21:04:48.019Z,100.00
2023-02-19T21:07:15.862Z,100.00
2023-02-19T21:09:43.580Z,100.00
2023-02-19T21:12:11.308Z,100.00
2023-02-19T21:14:39.249Z,100.00
2023-02-19T21:17:07.013Z,100.00
2023-02-19T21:19:34.780Z,100.00
2023-02-19T21:22:03.835Z,100.00
2023-02-19T21:24:32.656Z,100.00
2023-02-19T21:27:00.433Z,100.00
2023-02-19T21:29:28.205Z,100.00
2023-02-19T21:31:57.626Z,100.00
2023-02-19T21:34:26.996Z,100.00
2023-02-19T21:36:55.344Z,100.00
2023-02-19T21:39:26.042Z,100.00
2023-02-19T21:41:53.800Z,100.00
2023-02-19T21:44:22.094Z,100.00
2023-02-19T21:46:49.863Z,100.00
2023-02-19T21:49:17.844Z,100.00
2023-02-19T21:51:47.838Z,100.00
2023-02-19T21:54:17.740Z,100.00
2023-02-19T21:56:47.085Z,100.00
2023-02-19T21:59:14.772Z,100.00
2023-02-19T22:01:43.488Z,100.00
2023-02-19T22:04:13.819Z,100.00
2023-02-19T22:06:41.704Z,100.00
2023-02-19T22:09:10.697Z,100.00
2023-02-19T22:11:38.431Z,100.00
2023-02-19T22:14:07.718Z,100.00
2023-02-19T22:16:35.489Z,100.00
2023-02-19T22:19:03.335Z,100.00
2023-02-19T22:21:32.462Z,100.00
2023-02-19T22:24:01.174Z,100.00
2023-02-19T22:26:30.397Z,100.00
2023-02-19T22:28:59.400Z,100.00
2023-02-19T22:31:28.926Z,100.00
2023-02-19T22:33:57.179Z,100.00
2023-02-19T22:36:26.661Z,100.00
2023-02-19T22:38:54.616Z,100.00
2023-02-19T22:41:22.647Z,100.00
2023-02-19T22:43:50.853Z,100.00
2023-02-19T22:46:20.440Z,100.00
2023-02-19T22:48:50.497Z,100.00
2023-02-19T22:51:19.650Z,100.00
2023-02-19T22:53:48.515Z,100.00
2023-02-19T22:56:17.436Z,100.00
2023-02-19T22:58:45.644Z,100.00
2023-02-19T23:01:14.838Z,100.00
2023-02-19T23:03:47.164Z,100.00
2023-02-19T23:06:16.691Z,100.00
2023-02-19T23:08:44.831Z,100.00
2023-02-19T23:11:13.152Z,100.00
2023-02-19T23:13:42.056Z,100.00
2023-02-19T23:16:10.013Z,100.00
2023-02-19T23:18:37.840Z,100.00
2023-02-19T23:21:05.552Z,100.00
2023-02-19T23:23:34.596Z,100.00
2023-02-19T23:26:02.319Z,100.00
2023-02-19T23:28:30.122Z,100.00
2023-02-19T23:30:58.018Z,100.00
2023-02-19T23:33:25.766Z,100.00
2023-02-19T23:35:53.489Z,100.00
2023-02-19T23:38:21.153Z,100.00
2023-02-19T23:40:50.271Z,100.00
2023-02-19T23:43:17.972Z,100.00
2023-02-19T23:45:45.865Z,100.00
2023-02-19T23:48:13.586Z,100.00
2023-02-19T23:50:41.283Z,100.00
2023-02-19T23:53:09.229Z,100.00
2023-02-19T23:55:36.886Z,100.00
2023-02-19T23:58:05.952Z,100.00
